LEBB - Información del aeropuerto


Mapa

Información de pistas
Pista 10 Longitud 6562 ft Anchura 148 ft
Elevación 116 ft Threshold 0 ft Heading 97
Pista 28 Longitud 6562 ft Anchura 148 ft
Elevación 129 ft Threshold 0 ft Heading 277
Pista 12 Longitud 8530 ft Anchura 148 ft
Elevación 119 ft Threshold 0 ft Heading 117
Pista 30 Longitud 8530 ft Anchura 148 ft
Elevación 128 ft Threshold 1509 ft Heading 297
Frecuencias del aeropuerto
Tipo APP Nombre APP Frecuencia 120.7 MHZ
Tipo ATIS Nombre ATIS Frecuencia 118.825 MHZ
Tipo GND Nombre GND Frecuencia 121.7 MHZ
Tipo TWR Nombre TWR Frecuencia 118.5 MHZ
Radio-ayudas del aeropuerto
Tipo VOR-DME Nombre Bilbao Frecuencia 115900 KHZ
Información meteorología y NOTAM del aeropuerto
ADDS - METARS form results

(2335 UTC 23 October 2019)
Data provider http://aviationweather.gov/metar/data/
 
METAR text: LEBB 232330Z AUTO 25008KT 190V290 8000 -RA SCT034 BKN042 BKN055 12/10 Q1010
Conditions at: LEBB (BILBAO/SONDICA , ES) observed 2330 UTC 23 October 2019
Temperature: 12.0°C (54°F)
Dewpoint: 10.0°C (50°F) [RH = 88%]
Pressure (altimeter): 29.82 inches Hg (1010.0 mb)
Winds: from the WSW (250 degrees) at 9 MPH (8 knots; 4.1 m/s)
Visibility: 5 miles ( 8 km)
Ceiling: 4200 feet AGL
Clouds: scattered clouds at 3400 feet AGL
broken clouds at 4200 feet AGL
broken clouds at 5500 feet AGL
Weather: -RA  (light rain)

METAR text: LEBB 232300Z AUTO 26009KT 210V300 8000 -RA SCT032 BKN039 12/10 Q1010
Conditions at: LEBB (BILBAO/SONDICA , ES) observed 2300 UTC 23 October 2019
Temperature: 12.0°C (54°F)
Dewpoint: 10.0°C (50°F) [RH = 88%]
Pressure (altimeter): 29.82 inches Hg (1010.0 mb)
Winds: from the W (260 degrees) at 10 MPH (9 knots; 4.6 m/s)
Visibility: 5 miles ( 8 km)
Ceiling: 3900 feet AGL
Clouds: scattered clouds at 3200 feet AGL
broken clouds at 3900 feet AGL
Weather: -RA  (light rain)

Forecast for: LEBB (BILBAO/SONDICA , ES)
Text: TAF LEBB 232300Z 2400/2424 25009KT 9999 SCT015 BKN030 TX19/2415Z TN10/2406Z
Forecast period: 0000 UTC 24 October 2019 to 0000 UTC 25 October 2019
Forecast type: FROM: standard forecast or significant change
Winds: from the WSW (250 degrees) at 10 MPH (9 knots; 4.6 m/s)
Visibility: 6 or more miles 10+ km)
Ceiling: 3000 feet AGL
Clouds: scattered clouds at 1500 feet AGL
broken clouds at 3000 feet AGL
Weather: no significant weather forecast for this period
Text: TEMPO 2400/2412 3000 RA
Forecast period: 0000 to 1200 UTC 24 October 2019
Forecast type: TEMPORARY: The following changes expected for less than half the time period
Visibility: 1.86 miles (2.99 km)
Ceiling: unknown
Clouds: missing
Weather: RA  (moderate rain)
Text: TEMPO 2410/2415 22015G28KT
Forecast period: 1000 to 1500 UTC 24 October 2019
Forecast type: TEMPORARY: The following changes expected for less than half the time period
Winds: from the SW (220 degrees) at 17 MPH (15 knots; 7.7 m/s)
gusting to 32 MPH (28 knots; 14.4 m/s)
Visibility: missing
Ceiling: unknown
Clouds: missing
Weather: no significant weather forecast for this period